CheckWX is a tool to help pilots better visualize weather data.  It is not intended as a substitute for an official pre-flight weather briefing.

17:31:33 UTC

UKHH TAF
Kharkiv International Airport
Kharkiv, Ukraine
TAF UKHH 241110Z 2412/2512 28004MPS 9999 BKN020 TX08/2512Z TN01/2502Z TEMPO 2412/2418 25006G12MPS 2100 -SHRA BKN007 BKN015CB PROB40 TEMPO 2412/2418 -TSRA BKN015CB BECMG 2418/2420 30003MPS 6000 BKN015 TEMPO 2421/2506 2100 BR BKN007

Mar-24@
12:00 UTC

Mar-24 @ 12:00 UTC

Mar-24@
18:00 UTC

Mar-24 @ 18:00 UTC

TAF UKHH 241110Z 2412/2512 28004MPS 9999 BKN020 TX08/2512Z TN01/2502Z
Wind
  • 280° at 8 KTS
Cloud Levels
  • Broken at 2,000' AGL

Mar-24@
12:00 UTC

Mar-24 @ 12:00 UTC

Mar-24@
18:00 UTC

Mar-24 @ 18:00 UTC

TEMPO 2412/2418 25006G12MPS 2100 -SHRA BKN007 BKN015CB

Temporary

Temporary Changes expected for less than half the time period

Wind
  • 250° at 12 KTS
  • {Gusting to 23 KTS
Conditions
Light Rain
Cloud Levels
  • Broken at 700' AGL
  • Broken at 1,500' AGL

Mar-24@
12:00 UTC

Mar-24 @ 12:00 UTC

Mar-24@
18:00 UTC

Mar-24 @ 18:00 UTC

PROB40 TEMPO 2412/2418 -TSRA BKN015CB

Temporary - 40% Likelihood

Temporary - 40% Likelihood during this time.

Conditions
Light Thunderstorm, Light Rain
Cloud Levels
  • Broken at 1,500' AGL

Mar-24@
18:00 UTC

Mar-24 @ 18:00 UTC

Mar-25@
12:00 UTC

Mar-25 @ 12:00 UTC

BECMG 2418/2420 30003MPS 6000 BKN015

Becoming

Becoming Conditions expected by Sun, Mar 24, 2019 @ 20:00 UTC

Wind
  • 300° at 6 KTS
Cloud Levels
  • Broken at 1,500' AGL

Mar-24@
21:00 UTC

Mar-24 @ 21:00 UTC

Mar-25@
06:00 UTC

Mar-25 @ 06:00 UTC

TEMPO 2421/2506 2100 BR BKN007

Temporary

Temporary Changes expected for less than half the time period

Conditions
Mist
Cloud Levels
  • Broken at 700' AGL